Time;durP1;ratioP1;P1;durP2;ratioP2;P2;SDS_P1;SDS_P2;PMS_P1;PMS_P2;Temp;Humidity;BMP_temperature;BMP_pressure;BME280_temperature;BME280_humidity;BME280_pressure;Samples;Min_cycle;Max_cycle;Signal;HPM_P1;HPM_P2
2022/12/21 00:00:12;;;;;;;9.80;8.80;;;10.10;99.90;;;;;;5016597;28;20470;-65
2022/12/21 00:02:39;;;;;;;10.87;9.30;;;10.10;99.90;;;;;;5016722;28;20927;-65
2022/12/21 00:05:07;;;;;;;11.23;10.13;;;10.10;99.90;;;;;;5016648;28;20492;-65
2022/12/21 00:07:36;;;;;;;12.50;11.27;;;10.00;99.90;;;;;;5016993;28;20474;-65
2022/12/21 00:10:04;;;;;;;12.10;11.00;;;10.10;99.90;;;;;;5016965;28;20956;-65
2022/12/21 00:12:31;;;;;;;12.90;11.53;;;10.00;99.90;;;;;;5018706;28;20892;-65
2022/12/21 00:14:58;;;;;;;12.77;10.90;;;10.00;99.90;;;;;;5018521;28;20562;-66
2022/12/21 00:17:25;;;;;;;15.67;10.83;;;10.00;99.90;;;;;;5018305;28;20892;-66
2022/12/21 00:19:52;;;;;;;12.23;10.93;;;10.00;99.90;;;;;;5017971;28;20474;-65
2022/12/21 00:22:20;;;;;;;11.40;10.20;;;10.00;99.90;;;;;;5018788;28;20911;-65
2022/12/21 00:24:49;;;;;;;11.70;10.50;;;10.00;99.90;;;;;;5019325;28;21000;-65
2022/12/21 00:27:16;;;;;;;11.57;10.47;;;9.90;99.90;;;;;;5020118;28;20478;-65
2022/12/21 00:29:43;;;;;;;10.90;9.83;;;10.00;99.90;;;;;;5019687;28;20562;-65
2022/12/21 00:32:10;;;;;;;11.50;10.30;;;9.90;99.90;;;;;;5020325;28;20541;-65
2022/12/21 00:34:37;;;;;;;12.33;11.03;;;9.90;99.90;;;;;;5020071;28;20827;-65
2022/12/21 00:37:04;;;;;;;12.83;11.60;;;9.90;99.90;;;;;;5019892;28;20741;-66
2022/12/21 00:39:32;;;;;;;11.70;10.50;;;9.90;99.90;;;;;;5019618;28;20445;-66
2022/12/21 00:42:00;;;;;;;11.63;10.43;;;10.00;99.90;;;;;;5019942;28;20464;-66
2022/12/21 00:44:27;;;;;;;11.87;10.60;;;10.00;99.90;;;;;;5019919;28;20928;-66
2022/12/21 00:46:55;;;;;;;12.77;11.57;;;9.90;99.90;;;;;;5019970;28;20470;-66
2022/12/21 00:49:22;;;;;;;14.33;11.13;;;9.90;99.90;;;;;;5019540;28;20468;-66
2022/12/21 00:51:49;;;;;;;13.20;11.80;;;9.90;99.90;;;;;;5019631;28;20937;-66
2022/12/21 00:54:16;;;;;;;13.73;11.27;;;9.90;99.90;;;;;;5019674;28;20467;-67
2022/12/21 00:56:44;;;;;;;12.03;10.83;;;9.90;99.90;;;;;;5019645;28;20474;-66
2022/12/21 00:59:12;;;;;;;11.60;10.33;;;9.90;99.90;;;;;;5019413;28;20464;-66
2022/12/21 01:01:39;;;;;;;11.33;10.23;;;9.90;99.90;;;;;;5019418;28;20464;-66
2022/12/21 01:04:06;;;;;;;12.50;11.20;;;9.80;99.90;;;;;;5019820;28;20470;-66
2022/12/21 01:06:36;;;;;;;11.17;10.07;;;9.80;99.90;;;;;;5019043;28;20492;-67
2022/12/21 01:09:05;;;;;;;11.03;9.93;;;9.80;99.90;;;;;;5019018;28;20463;-66
2022/12/21 01:11:33;;;;;;;11.50;10.30;;;9.80;99.90;;;;;;5019203;28;20492;-66
2022/12/21 01:14:00;;;;;;;12.30;11.10;;;9.80;99.90;;;;;;5019361;28;20889;-66
2022/12/21 01:16:31;;;;;;;11.50;10.17;;;9.70;99.90;;;;;;5018873;28;20476;-66
2022/12/21 01:18:59;;;;;;;10.17;9.23;;;9.80;99.90;;;;;;5019129;28;20464;-66
2022/12/21 01:21:28;;;;;;;11.30;10.20;;;9.80;99.90;;;;;;5018138;28;20526;-66
2022/12/21 01:23:56;;;;;;;11.17;9.97;;;9.80;99.90;;;;;;5019125;28;20907;-66
2022/12/21 01:26:24;;;;;;;10.90;9.80;;;9.80;99.90;;;;;;5019157;28;20460;-66
2022/12/21 01:28:52;;;;;;;12.00;10.80;;;9.80;99.90;;;;;;5018586;28;20442;-66
2022/12/21 01:31:19;;;;;;;11.97;10.77;;;9.70;99.90;;;;;;5018524;28;20605;-66
2022/12/21 01:33:48;;;;;;;13.47;11.80;;;9.70;99.90;;;;;;5018316;28;20515;-66
2022/12/21 01:36:17;;;;;;;15.87;12.40;;;9.80;99.90;;;;;;5018879;28;20464;-66
2022/12/21 01:38:45;;;;;;;15.47;12.93;;;9.80;99.90;;;;;;5018610;28;20491;-66
2022/12/21 01:41:15;;;;;;;13.37;12.07;;;9.80;99.90;;;;;;5018800;28;20477;-66
2022/12/21 01:43:47;;;;;;;14.90;12.90;;;9.70;99.90;;;;;;5018674;28;20490;-66
2022/12/21 01:46:19;;;;;;;14.93;12.60;;;9.70;99.90;;;;;;5018687;28;20499;-66
2022/12/21 01:48:54;;;;;;;20.20;13.17;;;9.70;99.90;;;;;;5057606;28;20458;-66
2022/12/21 01:51:23;;;;;;;17.90;14.20;;;9.70;99.90;;;;;;5058087;28;20489;-65
2022/12/21 01:53:53;;;;;;;20.27;13.80;;;9.60;99.90;;;;;;5058311;28;20564;-66
2022/12/21 01:56:25;;;;;;;18.10;14.40;;;9.70;99.90;;;;;;5058643;28;20545;-66
2022/12/21 01:58:53;;;;;;;19.50;15.47;;;9.70;99.90;;;;;;5058340;28;20862;-66
2022/12/21 02:01:21;;;;;;;16.50;14.30;;;9.60;99.90;;;;;;5058045;28;20508;-66
2022/12/21 02:03:54;;;;;;;25.10;14.73;;;9.60;99.90;;;;;;5058253;28;20462;-66
2022/12/21 02:06:26;;;;;;;17.80;13.50;;;9.60;99.90;;;;;;5057519;28;20544;-65
2022/12/21 02:08:53;;;;;;;23.67;16.43;;;9.70;99.90;;;;;;5057608;28;20462;-66
2022/12/21 02:11:22;;;;;;;20.53;14.50;;;9.70;99.90;;;;;;5057763;28;20864;-66
2022/12/21 02:13:49;;;;;;;19.67;14.60;;;9.60;99.90;;;;;;5057926;28;20449;-66
2022/12/21 02:16:24;;;;;;;18.07;14.33;;;9.60;99.90;;;;;;5057865;28;20804;-67
2022/12/21 02:19:17;;;;;;;18.70;13.50;;;9.60;99.90;;;;;;5057431;28;20461;-66
2022/12/21 02:21:50;;;;;;;16.83;13.13;;;9.70;99.90;;;;;;5057967;28;20466;-66
2022/12/21 02:24:48;;;;;;;16.13;13.73;;;9.60;99.90;;;;;;5057253;28;20553;-67
2022/12/21 02:27:54;;;;;;;20.03;13.80;;;9.60;99.90;;;;;;5057411;28;20466;-66
2022/12/21 02:30:23;;;;;;;16.50;13.37;;;9.60;99.90;;;;;;5056763;28;20500;-68
2022/12/21 02:33:27;;;;;;;15.43;11.00;;;9.60;99.90;;;;;;5056996;28;20500;-67
2022/12/21 02:36:06;;;;;;;14.57;11.47;;;9.60;99.90;;;;;;5057504;28;20461;-67
2022/12/21 02:38:47;;;;;;;14.27;12.40;;;9.60;99.90;;;;;;5057248;28;20468;-67
2022/12/21 02:41:25;;;;;;;13.00;11.33;;;9.60;99.90;;;;;;5057196;28;20461;-67
2022/12/21 02:44:12;;;;;;;16.23;12.30;;;9.50;99.90;;;;;;5057718;28;20462;-67
2022/12/21 02:46:54;;;;;;;12.53;10.77;;;9.60;99.90;;;;;;5057018;28;20489;-66
2022/12/21 02:49:28;;;;;;;12.73;10.70;;;9.60;99.90;;;;;;5057380;28;20469;-66
2022/12/21 02:52:02;;;;;;;11.70;10.30;;;9.60;99.90;;;;;;5057579;28;20779;-66
2022/12/21 02:54:29;;;;;;;14.23;9.93;;;9.50;99.90;;;;;;5057452;28;20868;-66
2022/12/21 02:56:56;;;;;;;12.90;10.20;;;9.60;99.90;;;;;;5057086;28;20937;-66
2022/12/21 02:59:29;;;;;;;11.13;9.80;;;9.60;99.90;;;;;;5057004;28;20467;-66
2022/12/21 03:02:18;;;;;;;11.23;9.63;;;9.50;99.90;;;;;;5057544;28;20560;-66
2022/12/21 03:05:15;;;;;;;14.10;10.70;;;9.60;99.90;;;;;;5056662;28;20482;-66
2022/12/21 03:07:55;;;;;;;14.80;10.40;;;9.60;99.90;;;;;;5044367;28;20532;-66
2022/12/21 03:10:35;;;;;;;18.33;10.40;;;9.50;99.90;;;;;;5057164;28;20466;-66
2022/12/21 03:13:16;;;;;;;14.40;10.17;;;9.50;99.90;;;;;;5057055;28;20501;-65
2022/12/21 03:15:50;;;;;;;16.13;10.80;;;9.50;99.90;;;;;;5056510;28;20461;-66
2022/12/21 03:18:26;;;;;;;15.57;10.90;;;9.50;99.90;;;;;;5037177;28;20755;-65
2022/12/21 03:21:00;;;;;;;19.90;11.70;;;9.60;99.90;;;;;;5036912;28;20462;-66
2022/12/21 03:23:33;;;;;;;16.53;11.73;;;9.50;99.90;;;;;;5036545;28;20557;-66
2022/12/21 03:26:06;;;;;;;15.87;11.37;;;9.50;99.90;;;;;;5037328;28;20467;-66
2022/12/21 03:28:36;;;;;;;15.33;10.90;;;9.50;99.90;;;;;;5036548;28;20463;-66
2022/12/21 03:31:07;;;;;;;15.80;11.30;;;9.50;99.90;;;;;;5036331;28;20442;-65
2022/12/21 03:33:39;;;;;;;18.87;11.30;;;9.50;99.90;;;;;;5036821;28;20800;-65
2022/12/21 03:36:14;;;;;;;14.17;10.50;;;9.50;99.90;;;;;;5037047;28;20764;-65
2022/12/21 03:38:44;;;;;;;15.50;11.27;;;9.50;99.90;;;;;;5036329;28;20462;-65
2022/12/21 03:41:17;;;;;;;15.67;10.93;;;9.50;99.90;;;;;;5036575;28;20437;-65
2022/12/21 03:43:46;;;;;;;12.80;10.10;;;9.60;99.90;;;;;;5036860;28;20741;-65
2022/12/21 03:46:17;;;;;;;14.60;11.20;;;9.50;99.90;;;;;;5040294;28;20737;-65
2022/12/21 03:48:49;;;;;;;15.40;11.53;;;9.50;99.90;;;;;;5040584;28;20561;-65
2022/12/21 03:51:22;;;;;;;17.20;10.50;;;9.40;99.90;;;;;;5040392;28;20462;-65
2022/12/21 03:53:55;;;;;;;12.70;10.10;;;9.40;99.90;;;;;;5040121;28;20951;-65
2022/12/21 03:56:29;;;;;;;14.53;10.83;;;9.50;99.90;;;;;;5040634;28;20463;-65
2022/12/21 03:58:58;;;;;;;18.33;12.60;;;9.40;99.90;;;;;;5040142;28;20494;-65
2022/12/21 04:01:36;;;;;;;18.07;13.80;;;9.40;99.90;;;;;;5040273;28;20468;-65
2022/12/21 04:04:08;;;;;;;18.57;13.10;;;9.50;99.90;;;;;;5040490;28;20557;-65
2022/12/21 04:06:40;;;;;;;21.10;13.53;;;9.40;99.90;;;;;;5040017;28;20768;-65
2022/12/21 04:09:08;;;;;;;24.03;13.60;;;9.40;99.90;;;;;;5040031;28;20846;-65
2022/12/21 04:14:21;;;;;;;38.43;15.47;;;9.50;99.90;;;;;;5040149;28;20526;-65
2022/12/21 04:16:49;;;;;;;46.80;16.00;;;9.40;99.90;;;;;;5039765;28;20458;-65
2022/12/21 04:22:02;;;;;;;23.10;13.30;;;9.50;99.90;;;;;;5039933;28;20485;-66
2022/12/21 04:29:58;;;;;;;22.60;13.30;;;9.40;99.90;;;;;;5038866;28;20434;-66
2022/12/21 04:32:26;;;;;;;34.80;15.17;;;9.40;99.90;;;;;;5039782;28;20490;-66
2022/12/21 04:34:53;;;;;;;22.20;13.33;;;9.40;99.90;;;;;;5039494;28;20467;-66
2022/12/21 04:37:35;;;;;;;29.07;13.83;;;9.30;99.90;;;;;;5039547;28;20469;-66
2022/12/21 04:40:03;;;;;;;30.90;15.70;;;9.40;99.90;;;;;;5039698;28;21003;-66
2022/12/21 04:42:30;;;;;;;27.73;13.50;;;9.30;99.90;;;;;;5040006;28;20462;-66
2022/12/21 04:44:58;;;;;;;30.93;12.97;;;9.30;99.90;;;;;;5039343;28;20557;-66
2022/12/21 04:47:25;;;;;;;34.17;14.30;;;9.40;99.90;;;;;;5039829;28;20467;-66
2022/12/21 04:49:52;;;;;;;34.63;14.57;;;9.30;99.90;;;;;;5039797;28;20444;-66
2022/12/21 04:52:21;;;;;;;36.47;15.33;;;9.30;99.90;;;;;;5039553;28;20763;-66
2022/12/21 04:54:48;;;;;;;53.93;17.10;;;9.30;99.90;;;;;;5039530;28;20444;-66
2022/12/21 04:57:16;;;;;;;32.13;14.33;;;9.30;99.90;;;;;;5037924;28;20467;-66
2022/12/21 04:59:44;;;;;;;78.57;17.70;;;9.30;99.90;;;;;;5039422;28;20471;-65
2022/12/21 05:02:11;;;;;;;46.23;16.83;;;9.30;99.90;;;;;;5039699;28;20914;-66
2022/12/21 05:04:39;;;;;;;33.20;12.47;;;9.30;99.90;;;;;;5038824;28;20582;-66
2022/12/21 05:07:06;;;;;;;26.30;14.57;;;9.30;99.90;;;;;;5039090;28;20459;-65
2022/12/21 05:09:34;;;;;;;39.57;14.23;;;9.30;99.90;;;;;;5039352;28;20565;-65
2022/12/21 05:12:02;;;;;;;27.30;13.53;;;9.30;99.90;;;;;;5039408;28;20532;-65
2022/12/21 05:14:29;;;;;;;32.03;14.40;;;9.30;99.90;;;;;;5039404;28;20737;-66
2022/12/21 05:16:56;;;;;;;20.70;12.50;;;9.30;99.90;;;;;;5039460;28;20469;-66
2022/12/21 05:19:24;;;;;;;24.13;12.23;;;9.30;99.90;;;;;;5038592;28;20563;-66
2022/12/21 05:21:51;;;;;;;23.70;11.70;;;9.40;99.90;;;;;;5038743;28;20463;-66
2022/12/21 05:24:18;;;;;;;18.50;11.03;;;9.40;99.90;;;;;;5039339;28;20459;-66
2022/12/21 05:26:47;;;;;;;21.53;12.23;;;9.40;99.90;;;;;;5032898;28;20470;-67
2022/12/21 05:29:14;;;;;;;23.80;11.97;;;9.30;99.90;;;;;;5039004;28;20464;-67
2022/12/21 05:31:41;;;;;;;24.60;12.07;;;9.30;99.90;;;;;;5038945;28;20469;-68
2022/12/21 05:34:08;;;;;;;22.33;12.13;;;9.30;99.90;;;;;;5038949;28;20495;-67
2022/12/21 05:36:35;;;;;;;18.40;11.67;;;9.30;99.90;;;;;;5038275;28;20470;-67
2022/12/21 05:39:03;;;;;;;22.10;11.00;;;9.30;99.90;;;;;;5038040;28;20459;-66
2022/12/21 05:41:30;;;;;;;16.43;10.00;;;9.30;99.90;;;;;;5038552;28;20505;-66
2022/12/21 05:43:59;;;;;;;22.63;10.60;;;9.30;99.90;;;;;;5038790;28;20491;-66
2022/12/21 05:46:26;;;;;;;15.60;9.80;;;9.30;99.90;;;;;;5038604;28;20438;-66
2022/12/21 05:48:55;;;;;;;13.70;10.33;;;9.30;99.90;;;;;;5038064;28;20557;-66
2022/12/21 05:51:22;;;;;;;18.87;11.60;;;9.40;99.90;;;;;;5038122;28;20467;-66
2022/12/21 05:53:50;;;;;;;15.93;11.07;;;9.40;99.90;;;;;;5037614;28;20499;-66
2022/12/21 05:56:17;;;;;;;12.83;9.60;;;9.30;99.90;;;;;;5037220;28;20469;-66
2022/12/21 05:58:44;;;;;;;28.50;13.27;;;9.30;99.90;;;;;;5037243;28;20463;-66
2022/12/21 06:01:13;;;;;;;15.23;10.30;;;9.30;99.90;;;;;;5037808;28;20914;-67
2022/12/21 06:03:41;;;;;;;14.60;8.80;;;9.30;99.90;;;;;;5037647;28;20463;-67
2022/12/21 06:06:10;;;;;;;13.83;9.47;;;9.30;99.90;;;;;;5037149;28;20586;-67
2022/12/21 06:08:38;;;;;;;13.50;9.13;;;9.20;99.90;;;;;;5037784;28;20463;-67
2022/12/21 06:11:07;;;;;;;11.40;8.27;;;9.20;99.90;;;;;;5037983;28;20506;-67
2022/12/21 06:13:34;;;;;;;11.13;7.40;;;9.20;99.90;;;;;;5037734;28;20534;-66
2022/12/21 06:16:09;;;;;;;8.60;6.90;;;9.30;99.90;;;;;;5038114;28;20462;-66
2022/12/21 06:18:39;;;;;;;10.27;8.07;;;9.30;99.90;;;;;;5037321;28;20493;-66
2022/12/21 06:21:07;;;;;;;12.10;7.60;;;9.30;99.90;;;;;;5035973;28;20549;-66
2022/12/21 06:23:34;;;;;;;13.80;7.77;;;9.30;99.90;;;;;;5036519;28;20463;-66
2022/12/21 06:26:04;;;;;;;11.00;6.47;;;9.30;99.90;;;;;;5035819;28;20459;-67
2022/12/21 06:28:32;;;;;;;9.97;6.90;;;9.40;99.90;;;;;;5035628;28;21262;-67
2022/12/21 06:31:03;;;;;;;10.77;6.57;;;9.30;99.90;;;;;;5035270;28;20884;-66
2022/12/21 06:33:30;;;;;;;7.50;6.13;;;9.30;99.90;;;;;;5035567;28;20497;-66
2022/12/21 06:35:59;;;;;;;9.17;6.50;;;9.30;99.90;;;;;;5037539;28;20462;-66
2022/12/21 06:38:27;;;;;;;8.27;6.63;;;9.30;99.90;;;;;;5037091;28;20470;-66
2022/12/21 06:40:57;;;;;;;10.77;6.73;;;9.30;99.90;;;;;;5037171;28;20463;-66
2022/12/21 06:43:25;;;;;;;9.20;7.10;;;9.40;99.90;;;;;;5037217;28;20475;-66
2022/12/21 06:45:54;;;;;;;10.30;7.60;;;9.40;99.90;;;;;;5037399;28;20557;-66
2022/12/21 06:48:22;;;;;;;11.50;7.70;;;9.40;99.90;;;;;;5037278;28;20892;-65
2022/12/21 06:50:54;;;;;;;10.17;6.97;;;9.40;99.90;;;;;;5037019;28;20566;-66
2022/12/21 06:53:24;;;;;;;11.60;7.70;;;9.40;99.90;;;;;;5036906;28;20593;-66
2022/12/21 06:55:59;;;;;;;8.97;6.30;;;9.40;99.90;;;;;;5031879;28;20562;-66
2022/12/21 06:58:26;;;;;;;8.97;7.30;;;9.40;99.90;;;;;;5017800;28;21013;-66
2022/12/21 07:00:53;;;;;;;10.50;7.47;;;9.30;99.90;;;;;;5015993;28;20474;-66
2022/12/21 07:03:21;;;;;;;12.13;8.13;;;9.30;99.90;;;;;;5016171;28;20554;-66
2022/12/21 07:05:56;;;;;;;12.13;8.83;;;9.40;99.90;;;;;;5016034;28;20945;-66
2022/12/21 07:08:25;;;;;;;11.70;8.67;;;9.30;99.90;;;;;;5016116;28;20459;-66
2022/12/21 07:10:57;;;;;;;13.40;8.80;;;9.30;99.90;;;;;;5016457;28;20558;-66
2022/12/21 07:13:25;;;;;;;12.07;8.37;;;9.30;99.90;;;;;;5017220;28;20496;-66
2022/12/21 07:15:52;;;;;;;9.33;8.20;;;9.30;99.90;;;;;;5016787;28;20474;-66
2022/12/21 07:18:19;;;;;;;14.83;9.10;;;9.30;99.90;;;;;;5016713;28;20785;-66
2022/12/21 07:20:47;;;;;;;11.10;7.63;;;9.40;99.90;;;;;;5019126;28;20470;-66
2022/12/21 07:23:14;;;;;;;11.17;7.70;;;9.40;99.90;;;;;;5020284;28;20786;-66
2022/12/21 07:25:43;;;;;;;12.87;8.00;;;9.30;99.90;;;;;;5020634;28;20472;-68
2022/12/21 07:28:10;;;;;;;11.50;7.33;;;9.40;99.90;;;;;;5021862;28;20733;-67
2022/12/21 07:30:37;;;;;;;11.67;7.47;;;9.40;99.90;;;;;;5024187;28;20467;-67
2022/12/21 07:33:04;;;;;;;9.97;7.50;;;9.40;99.90;;;;;;5020849;28;20498;-66
2022/12/21 07:35:33;;;;;;;9.43;6.70;;;9.40;99.90;;;;;;5021051;28;20463;-67
2022/12/21 07:38:00;;;;;;;10.70;7.20;;;9.40;99.90;;;;;;5021521;28;20751;-66
2022/12/21 07:40:27;;;;;;;8.97;7.03;;;9.50;99.90;;;;;;5021442;28;20526;-66
2022/12/21 07:42:56;;;;;;;11.23;7.40;;;9.50;99.90;;;;;;5019873;28;20550;-66
2022/12/21 07:45:23;;;;;;;11.17;7.40;;;9.50;99.90;;;;;;5020715;28;20468;-66
2022/12/21 07:47:51;;;;;;;9.37;8.37;;;9.50;99.90;;;;;;5020909;28;20464;-65
2022/12/21 07:50:19;;;;;;;11.10;8.87;;;9.60;99.90;;;;;;5020587;28;20472;-67
2022/12/21 07:52:47;;;;;;;9.67;7.40;;;9.60;99.90;;;;;;5053689;28;20462;-65
2022/12/21 07:55:14;;;;;;;10.63;8.70;;;9.70;99.90;;;;;;5060306;28;20755;-66
2022/12/21 07:57:42;;;;;;;9.87;8.70;;;9.80;99.90;;;;;;5059370;28;20468;-66
2022/12/21 08:00:11;;;;;;;11.27;10.00;;;9.70;99.90;;;;;;5060191;28;20520;-66
2022/12/21 08:02:39;;;;;;;12.10;10.53;;;9.80;99.90;;;;;;5059901;28;20461;-66
2022/12/21 08:05:06;;;;;;;13.83;11.40;;;9.80;99.90;;;;;;5059868;28;20500;-66
2022/12/21 08:07:34;;;;;;;14.17;10.87;;;9.80;99.90;;;;;;5060300;28;20560;-66
2022/12/21 08:10:01;;;;;;;13.43;11.63;;;9.90;99.90;;;;;;5059064;28;20914;-66
2022/12/21 08:12:29;;;;;;;12.70;10.33;;;9.90;99.90;;;;;;5060066;28;20592;-65
2022/12/21 08:14:56;;;;;;;11.87;10.40;;;9.90;99.90;;;;;;5059597;28;20947;-66
2022/12/21 08:17:25;;;;;;;10.60;8.37;;;9.90;99.90;;;;;;5059532;28;20462;-66
2022/12/21 08:19:52;;;;;;;9.80;8.20;;;9.90;99.90;;;;;;5059637;28;20462;-66
2022/12/21 08:22:19;;;;;;;9.50;8.50;;;9.90;99.90;;;;;;5060151;28;20459;-66
2022/12/21 08:24:47;;;;;;;9.07;7.67;;;10.00;99.90;;;;;;5059747;28;20950;-66
2022/12/21 08:27:15;;;;;;;8.23;7.43;;;10.00;99.90;;;;;;5060151;28;20887;-66
2022/12/21 08:29:43;;;;;;;8.57;7.77;;;10.00;99.90;;;;;;5059852;28;20472;-66
2022/12/21 08:32:10;;;;;;;7.00;6.30;;;10.00;99.90;;;;;;5059891;28;20565;-66
2022/12/21 08:34:38;;;;;;;8.00;7.30;;;10.10;99.90;;;;;;5059310;28;20494;-66
2022/12/21 08:37:06;;;;;;;8.73;7.93;;;10.10;99.90;;;;;;5059177;28;20472;-66
2022/12/21 08:39:33;;;;;;;8.20;7.47;;;10.10;99.90;;;;;;5059334;28;20470;-66
2022/12/21 08:42:00;;;;;;;9.30;8.03;;;10.10;99.90;;;;;;5059727;28;20462;-66
2022/12/21 08:44:27;;;;;;;9.70;8.53;;;10.10;99.90;;;;;;5059644;28;20461;-66
2022/12/21 08:46:55;;;;;;;8.77;7.87;;;10.10;99.90;;;;;;5059906;28;20468;-66
2022/12/21 08:49:22;;;;;;;8.47;7.67;;;10.10;99.90;;;;;;5059039;28;20927;-66
2022/12/21 08:51:50;;;;;;;12.13;8.10;;;10.20;99.90;;;;;;5052184;28;20538;-66
2022/12/21 08:54:17;;;;;;;9.60;7.23;;;10.20;99.90;;;;;;5022167;28;20488;-66
2022/12/21 08:56:45;;;;;;;7.57;6.87;;;10.20;99.90;;;;;;5018958;28;20468;-65
2022/12/21 08:59:12;;;;;;;9.97;7.87;;;10.30;99.90;;;;;;5019370;28;20559;-65
2022/12/21 09:01:39;;;;;;;9.20;8.30;;;10.30;99.90;;;;;;5019246;28;20460;-65
2022/12/21 09:04:06;;;;;;;10.50;7.60;;;10.20;99.90;;;;;;5022776;28;20554;-65
2022/12/21 09:06:34;;;;;;;8.63;7.83;;;10.20;99.90;;;;;;5029636;28;20487;-65
2022/12/21 09:09:02;;;;;;;9.93;8.93;;;10.20;99.90;;;;;;5038881;28;20501;-65
2022/12/21 09:11:29;;;;;;;8.77;8.00;;;10.30;99.90;;;;;;5038359;28;20459;-65
2022/12/21 09:13:57;;;;;;;8.77;7.97;;;10.20;99.90;;;;;;5039312;28;20495;-65
2022/12/21 09:16:25;;;;;;;9.47;8.57;;;10.20;99.90;;;;;;5039114;28;20576;-65
2022/12/21 09:18:52;;;;;;;8.87;8.07;;;10.20;99.90;;;;;;5038111;28;20470;-65
2022/12/21 09:21:22;;;;;;;10.00;8.80;;;10.30;99.90;;;;;;5038455;28;20833;-65
2022/12/21 09:23:51;;;;;;;10.33;9.23;;;10.20;99.90;;;;;;5037086;28;20522;-65
2022/12/21 09:26:20;;;;;;;9.70;8.80;;;10.20;99.90;;;;;;5027348;28;20463;-65
2022/12/21 09:28:47;;;;;;;9.50;8.60;;;10.20;99.90;;;;;;5015734;28;20464;-65
2022/12/21 09:31:16;;;;;;;10.37;9.47;;;10.20;99.90;;;;;;5016769;28;20460;-65
2022/12/21 09:33:44;;;;;;;11.77;8.70;;;10.10;99.90;;;;;;5030427;28;20492;-65
2022/12/21 09:36:13;;;;;;;10.73;9.73;;;10.20;99.90;;;;;;5016102;28;20464;-65
2022/12/21 09:38:41;;;;;;;10.90;10.00;;;10.20;99.90;;;;;;5028016;28;20561;-65
2022/12/21 09:41:28;;;;;;;10.30;9.40;;;10.20;99.90;;;;;;5037439;28;20469;-65
2022/12/21 09:44:28;;;;;;;11.00;9.77;;;10.20;99.90;;;;;;5037850;28;20481;-65
2022/12/21 09:47:01;;;;;;;10.70;9.70;;;10.20;99.90;;;;;;5035522;28;20558;-65
2022/12/21 09:49:37;;;;;;;9.70;8.80;;;10.10;99.90;;;;;;5038361;28;20462;-65
2022/12/21 09:52:13;;;;;;;10.30;9.30;;;10.20;99.90;;;;;;5038323;28;20466;-65
2022/12/21 09:54:46;;;;;;;11.00;9.90;;;10.10;99.90;;;;;;5038117;28;20491;-65
2022/12/21 09:57:15;;;;;;;10.30;8.63;;;10.20;99.90;;;;;;5035915;28;20481;-65
2022/12/21 09:59:42;;;;;;;10.47;9.40;;;10.10;99.90;;;;;;5038045;28;20545;-65
2022/12/21 10:02:20;;;;;;;9.77;8.13;;;10.20;99.90;;;;;;5037974;28;20558;-64
2022/12/21 10:05:02;;;;;;;9.67;7.77;;;10.10;99.90;;;;;;5037500;28;20802;-64
2022/12/21 10:07:57;;;;;;;9.70;8.70;;;10.20;99.90;;;;;;5038413;28;20923;-64
2022/12/21 10:10:29;;;;;;;8.50;7.67;;;10.10;99.90;;;;;;5037995;28;20463;-64
2022/12/21 10:13:06;;;;;;;9.13;8.10;;;10.10;99.90;;;;;;5032858;28;20550;-65
2022/12/21 10:15:43;;;;;;;9.27;8.37;;;10.00;99.90;;;;;;5017416;28;20936;-65
2022/12/21 10:18:19;;;;;;;8.73;7.83;;;10.00;99.90;;;;;;5031499;28;20469;-65
2022/12/21 10:20:52;;;;;;;9.57;7.67;;;9.90;99.90;;;;;;5037706;28;20561;-65
2022/12/21 10:23:25;;;;;;;9.10;8.07;;;9.90;99.90;;;;;;5037773;28;20441;-65
2022/12/21 10:25:57;;;;;;;10.30;9.30;;;10.00;99.90;;;;;;5038084;28;20460;-65
2022/12/21 10:28:36;;;;;;;9.43;8.40;;;9.90;99.90;;;;;;5037986;28;20463;-64
2022/12/21 10:31:06;;;;;;;12.10;10.10;;;10.00;99.90;;;;;;5026422;28;20784;-64
2022/12/21 10:33:37;;;;;;;10.60;8.90;;;9.80;99.90;;;;;;5017950;28;20456;-64
2022/12/21 10:36:06;;;;;;;10.13;8.67;;;9.80;99.90;;;;;;5018224;28;20459;-65
2022/12/21 10:38:35;;;;;;;10.70;8.47;;;9.80;99.90;;;;;;5020174;28;20457;-65
2022/12/21 10:41:05;;;;;;;9.77;7.90;;;9.90;99.90;;;;;;5029930;28;20470;-64
2022/12/21 10:43:38;;;;;;;13.63;8.40;;;9.90;99.90;;;;;;5016112;28;20750;-64
2022/12/21 10:46:05;;;;;;;9.87;8.10;;;9.90;99.90;;;;;;5015925;28;20451;-65
2022/12/21 10:48:33;;;;;;;10.40;8.70;;;10.00;99.90;;;;;;5016336;28;20555;-64
2022/12/21 10:51:11;;;;;;;10.47;8.77;;;9.70;99.90;;;;;;5016851;28;20495;-65
2022/12/21 10:53:38;;;;;;;11.60;9.40;;;9.70;99.90;;;;;;5017313;28;20460;-65
2022/12/21 10:56:06;;;;;;;11.30;8.17;;;9.60;99.90;;;;;;5017582;28;20498;-65
2022/12/21 10:58:36;;;;;;;12.70;8.70;;;9.60;99.90;;;;;;5016711;28;20470;-65
2022/12/21 11:01:05;;;;;;;12.30;9.30;;;9.50;99.90;;;;;;5017358;28;20511;-65
2022/12/21 11:03:36;;;;;;;9.20;8.17;;;9.50;99.90;;;;;;5017613;28;20463;-65
2022/12/21 11:06:13;;;;;;;13.03;8.50;;;9.40;99.90;;;;;;5017147;28;20542;-65
2022/12/21 11:08:46;;;;;;;12.93;7.40;;;9.30;99.90;;;;;;5024779;28;20452;-64
2022/12/21 11:11:29;;;;;;;10.13;7.83;;;9.10;99.90;;;;;;5024926;28;20458;-63
2022/12/21 11:14:03;;;;;;;15.87;8.47;;;9.10;99.90;;;;;;5015711;28;20542;-64
2022/12/21 11:16:32;;;;;;;12.50;9.30;;;9.00;99.90;;;;;;5026354;28;20488;-64
2022/12/21 11:19:01;;;;;;;13.53;8.60;;;9.00;99.90;;;;;;5024554;28;20829;-64
2022/12/21 11:21:37;;;;;;;15.70;8.50;;;9.00;99.90;;;;;;5025550;28;20533;-64
2022/12/21 11:24:11;;;;;;;15.60;9.60;;;9.10;99.90;;;;;;5015345;28;20931;-65
2022/12/21 11:26:44;;;;;;;13.10;9.67;;;9.10;99.90;;;;;;5024039;28;20895;-65
2022/12/21 11:29:21;;;;;;;11.77;9.33;;;9.10;99.90;;;;;;5025951;28;20514;-65
2022/12/21 11:31:49;;;;;;;13.37;9.73;;;9.10;99.90;;;;;;5015683;28;20459;-65
2022/12/21 11:34:35;;;;;;;13.53;9.00;;;9.20;99.90;;;;;;5023763;28;20488;-65
2022/12/21 11:37:05;;;;;;;13.57;9.33;;;9.00;99.90;;;;;;5024404;28;20451;-65
2022/12/21 11:39:32;;;;;;;13.30;8.07;;;9.10;99.90;;;;;;5024253;28;20452;-65
2022/12/21 11:42:00;;;;;;;12.47;8.93;;;9.00;99.90;;;;;;5026098;28;20455;-65
2022/12/21 11:44:31;;;;;;;13.03;8.63;;;8.90;99.90;;;;;;5023985;28;21219;-65
2022/12/21 11:47:19;;;;;;;13.40;8.30;;;8.90;99.90;;;;;;5025331;28;20854;-65
2022/12/21 11:50:13;;;;;;;15.13;9.23;;;8.80;99.90;;;;;;5014171;28;20456;-65
2022/12/21 11:53:05;;;;;;;17.47;8.13;;;8.80;99.90;;;;;;5014019;28;20448;-65
2022/12/21 11:55:42;;;;;;;13.77;7.73;;;8.80;99.90;;;;;;5013985;28;20519;-65
2022/12/21 11:58:21;;;;;;;11.80;8.40;;;8.80;99.90;;;;;;5013938;28;20559;-65
2022/12/21 12:00:58;;;;;;;14.83;9.10;;;8.80;99.90;;;;;;5013654;28;20905;-65
2022/12/21 12:03:43;;;;;;;19.57;8.40;;;8.80;99.90;;;;;;5016853;28;20464;-66
2022/12/21 12:06:23;;;;;;;16.20;8.63;;;8.90;99.90;;;;;;5018216;28;20498;-66
2022/12/21 12:09:07;;;;;;;17.40;9.47;;;8.90;99.90;;;;;;5020297;28;20468;-66
2022/12/21 12:11:46;;;;;;;13.13;8.23;;;8.90;99.90;;;;;;5020459;28;20538;-65
2022/12/21 12:14:38;;;;;;;16.90;7.90;;;8.90;99.90;;;;;;5020404;28;20904;-66
2022/12/21 12:17:18;;;;;;;14.00;8.50;;;8.80;99.90;;;;;;5019842;28;20888;-65
2022/12/21 12:19:53;;;;;;;12.47;7.13;;;8.90;99.90;;;;;;5020654;28;20901;-65
2022/12/21 12:22:38;;;;;;;13.97;8.43;;;9.00;99.90;;;;;;5020396;28;20561;-65
2022/12/21 12:25:40;;;;;;;10.67;7.23;;;9.10;99.90;;;;;;5019760;28;20470;-65
2022/12/21 12:28:30;;;;;;;11.63;7.70;;;9.10;99.90;;;;;;5017511;28;20448;-65
2022/12/21 12:31:11;;;;;;;11.30;8.07;;;9.10;99.90;;;;;;5018537;28;20464;-65
2022/12/21 12:33:57;;;;;;;17.17;7.20;;;9.10;99.90;;;;;;5019988;28;20460;-65
2022/12/21 12:36:34;;;;;;;13.50;9.00;;;9.10;99.90;;;;;;5018829;28;20609;-65
2022/12/21 12:39:10;;;;;;;10.13;8.10;;;9.10;99.90;;;;;;5018705;28;20448;-65
2022/12/21 12:44:49;;;;;;;19.33;9.60;;;9.20;99.90;;;;;;5026195;28;20467;-65
2022/12/21 12:47:23;;;;;;;12.67;9.83;;;9.20;99.90;;;;;;5030962;28;20474;-65
2022/12/21 12:50:06;;;;;;;10.10;7.67;;;9.30;99.90;;;;;;5026109;28;20480;-65
2022/12/21 12:52:49;;;;;;;13.60;8.03;;;9.30;99.90;;;;;;5021796;28;20476;-66
2022/12/21 12:55:23;;;;;;;9.70;8.00;;;9.30;99.90;;;;;;5025956;28;20487;-65
2022/12/21 12:57:58;;;;;;;18.57;8.90;;;9.30;99.90;;;;;;5028061;28;20467;-65
2022/12/21 13:00:27;;;;;;;11.87;7.80;;;9.30;99.90;;;;;;5029071;28;20477;-66
2022/12/21 13:03:10;;;;;;;11.10;7.20;;;9.20;99.90;;;;;;5026894;28;20475;-65
2022/12/21 13:05:50;;;;;;;11.80;8.07;;;9.20;99.90;;;;;;5025536;28;20499;-65
2022/12/21 13:08:33;;;;;;;15.93;8.13;;;9.20;99.90;;;;;;5019050;28;20494;-65
2022/12/21 13:11:06;;;;;;;13.30;8.10;;;9.10;99.90;;;;;;5019777;28;20932;-65
2022/12/21 13:13:37;;;;;;;13.10;8.10;;;9.10;99.90;;;;;;5026683;28;20467;-65
2022/12/21 13:16:09;;;;;;;11.80;9.10;;;9.10;99.90;;;;;;5035234;28;20569;-65
2022/12/21 13:18:41;;;;;;;15.23;9.10;;;9.10;99.90;;;;;;5034965;28;20692;-65